Time;durP1;ratioP1;P1;durP2;ratioP2;P2;SDS_P1;SDS_P2;PMS_P1;PMS_P2;Temp;Humidity;BMP_temperature;BMP_pressure;BME280_temperature;BME280_humidity;BME280_pressure;Samples;Min_cycle;Max_cycle;Signal;HPM_P1;HPM_P2
2023/09/15 00:00:33;;;;;;;9.95;2.80;;;13.40;99.90;;;;;;5070491;28;20044;-70
2023/09/15 00:02:58;;;;;;;11.90;3.05;;;13.40;99.90;;;;;;5070637;28;20155;-71
2023/09/15 00:05:29;;;;;;;9.98;2.95;;;13.40;99.90;;;;;;5070696;28;20040;-71
2023/09/15 00:07:58;;;;;;;9.02;3.03;;;13.40;99.90;;;;;;5070359;28;20052;-70
2023/09/15 00:10:24;;;;;;;6.97;2.75;;;13.30;99.90;;;;;;5069684;28;20046;-70
2023/09/15 00:12:50;;;;;;;12.70;3.30;;;13.30;99.90;;;;;;5069290;28;20045;-70
2023/09/15 00:15:17;;;;;;;9.60;2.55;;;13.30;99.90;;;;;;5068749;28;20041;-67
2023/09/15 00:17:46;;;;;;;9.27;3.40;;;13.30;99.90;;;;;;5068888;28;20040;-66
2023/09/15 00:20:16;;;;;;;10.07;3.08;;;13.20;99.90;;;;;;5067890;28;20040;-67
2023/09/15 00:22:49;;;;;;;8.23;2.97;;;13.20;99.90;;;;;;5067694;28;20136;-67
2023/09/15 00:25:26;;;;;;;10.13;2.97;;;13.20;99.90;;;;;;5060550;28;20465;-67
2023/09/15 00:27:55;;;;;;;10.35;3.17;;;13.20;99.90;;;;;;5049660;28;20041;-67
2023/09/15 00:30:23;;;;;;;8.00;2.63;;;13.10;99.90;;;;;;5067528;28;20059;-66
2023/09/15 00:32:49;;;;;;;9.75;3.00;;;13.10;99.90;;;;;;5065728;28;20106;-67
2023/09/15 00:35:18;;;;;;;8.25;3.10;;;13.00;99.90;;;;;;5099057;28;20040;-67
2023/09/15 00:37:46;;;;;;;11.35;3.50;;;13.00;99.90;;;;;;5068369;28;20713;-66
2023/09/15 00:40:16;;;;;;;9.70;2.90;;;13.00;99.90;;;;;;5069034;28;20048;-67
2023/09/15 00:42:47;;;;;;;10.90;3.13;;;13.00;99.90;;;;;;5062079;28;20059;-67
2023/09/15 00:45:19;;;;;;;11.52;2.95;;;12.90;99.90;;;;;;5069355;28;20286;-67
2023/09/15 00:48:05;;;;;;;10.90;3.20;;;12.90;99.90;;;;;;5067613;28;20101;-67
2023/09/15 00:50:32;;;;;;;6.45;2.72;;;12.90;99.90;;;;;;5067614;28;20422;-67
2023/09/15 00:53:15;;;;;;;7.45;2.92;;;12.80;99.90;;;;;;5062811;28;20040;-67
2023/09/15 00:55:47;;;;;;;10.68;3.22;;;12.80;99.90;;;;;;5061807;28;20123;-67
2023/09/15 00:58:16;;;;;;;9.32;2.83;;;12.80;99.90;;;;;;5067286;28;20132;-66
2023/09/15 01:00:43;;;;;;;7.50;2.50;;;12.80;99.90;;;;;;5065613;28;20078;-67
2023/09/15 01:03:20;;;;;;;10.20;2.95;;;12.70;99.90;;;;;;5068516;28;20043;-68
2023/09/15 01:05:46;;;;;;;8.45;2.85;;;12.70;99.90;;;;;;5068405;28;20127;-67
2023/09/15 01:08:16;;;;;;;9.35;2.65;;;12.70;99.90;;;;;;5068289;28;20056;-68
2023/09/15 01:10:41;;;;;;;7.95;2.70;;;12.70;99.90;;;;;;5063192;28;20052;-66
2023/09/15 01:13:07;;;;;;;8.48;2.60;;;12.60;99.90;;;;;;5066267;28;20041;-66
2023/09/15 01:15:43;;;;;;;9.57;2.65;;;12.60;99.90;;;;;;5068364;28;20044;-67
2023/09/15 01:18:14;;;;;;;9.10;2.70;;;12.60;99.90;;;;;;5068078;28;20048;-64
2023/09/15 01:21:00;;;;;;;10.95;2.40;;;12.60;99.90;;;;;;5066679;28;20084;-66
2023/09/15 01:23:58;;;;;;;8.75;2.80;;;12.60;99.90;;;;;;5048117;28;20115;-66
2023/09/15 01:26:23;;;;;;;8.02;2.78;;;12.60;99.90;;;;;;5067566;28;20493;-66
2023/09/15 01:28:58;;;;;;;9.43;2.80;;;12.50;99.90;;;;;;5064932;28;20047;-66
2023/09/15 01:31:24;;;;;;;9.95;3.33;;;12.50;99.90;;;;;;5054034;28;20130;-65
2023/09/15 01:33:51;;;;;;;6.07;2.60;;;12.40;99.90;;;;;;5065223;28;20052;-65
2023/09/15 01:36:16;;;;;;;5.68;2.22;;;12.40;99.90;;;;;;5066552;28;20117;-65
2023/09/15 01:38:45;;;;;;;8.10;2.38;;;12.40;99.90;;;;;;5067315;28;20033;-66
2023/09/15 01:41:11;;;;;;;7.20;2.88;;;12.30;99.90;;;;;;5067134;28;20086;-66
2023/09/15 01:43:36;;;;;;;8.85;2.60;;;12.30;99.90;;;;;;5066154;28;20121;-65
2023/09/15 01:46:02;;;;;;;8.35;2.42;;;12.30;99.90;;;;;;5067582;28;20114;-66
2023/09/15 01:48:29;;;;;;;9.75;3.15;;;12.30;99.90;;;;;;5064505;28;20047;-66
2023/09/15 01:50:57;;;;;;;10.52;2.90;;;12.30;99.90;;;;;;5065351;28;20059;-65
2023/09/15 01:53:24;;;;;;;12.50;2.90;;;12.20;99.90;;;;;;5067330;28;20044;-66
2023/09/15 01:55:50;;;;;;;7.32;2.65;;;12.20;99.90;;;;;;5066054;28;20653;-66
2023/09/15 01:58:18;;;;;;;11.48;2.80;;;12.20;99.90;;;;;;5067834;28;20131;-66
2023/09/15 02:00:43;;;;;;;9.25;2.78;;;12.10;99.90;;;;;;5067329;28;20040;-65
2023/09/15 02:03:09;;;;;;;7.63;2.38;;;12.10;99.90;;;;;;5064472;28;20083;-66
2023/09/15 02:05:35;;;;;;;7.25;2.67;;;12.10;99.90;;;;;;5067269;28;20048;-66
2023/09/15 02:08:01;;;;;;;8.70;2.85;;;12.10;99.90;;;;;;5062847;28;20400;-66
2023/09/15 02:10:26;;;;;;;6.75;2.60;;;12.10;99.90;;;;;;5067132;28;20040;-66
2023/09/15 02:12:52;;;;;;;8.57;2.40;;;12.00;99.90;;;;;;5066019;28;20040;-66
2023/09/15 02:15:18;;;;;;;11.00;3.15;;;12.00;99.90;;;;;;5066541;28;20045;-65
2023/09/15 02:17:43;;;;;;;8.65;2.97;;;12.00;99.90;;;;;;5065986;28;20059;-65
2023/09/15 02:20:12;;;;;;;5.85;2.33;;;12.00;99.90;;;;;;5067530;28;20569;-66
2023/09/15 02:22:45;;;;;;;10.00;3.03;;;12.00;99.90;;;;;;5065879;28;20059;-66
2023/09/15 02:25:11;;;;;;;8.55;2.70;;;11.90;99.90;;;;;;5066789;28;20054;-66
2023/09/15 02:27:39;;;;;;;8.73;2.70;;;11.90;99.90;;;;;;5066387;28;20048;-66
2023/09/15 02:30:06;;;;;;;9.00;2.42;;;11.90;99.90;;;;;;5066953;28;20128;-66
2023/09/15 02:32:32;;;;;;;8.32;2.72;;;11.90;99.90;;;;;;5063681;28;20048;-65
2023/09/15 02:34:58;;;;;;;7.47;2.40;;;11.80;99.90;;;;;;5066929;28;20635;-66
2023/09/15 02:37:24;;;;;;;13.30;3.15;;;11.80;99.90;;;;;;5065449;28;20069;-66
2023/09/15 02:39:49;;;;;;;11.07;2.58;;;11.80;99.90;;;;;;5065894;28;20040;-65
2023/09/15 02:42:15;;;;;;;6.50;2.45;;;11.80;99.90;;;;;;5064594;28;20036;-65
2023/09/15 02:44:45;;;;;;;6.18;2.53;;;11.80;99.90;;;;;;5065594;28;20405;-65
2023/09/15 02:47:11;;;;;;;8.48;2.60;;;11.70;99.90;;;;;;5065558;28;20051;-65
2023/09/15 02:49:37;;;;;;;9.25;2.60;;;11.70;99.90;;;;;;5066338;28;20044;-66
2023/09/15 02:52:04;;;;;;;6.88;2.50;;;11.70;99.90;;;;;;5064551;28;20039;-66
2023/09/15 02:54:30;;;;;;;6.40;2.33;;;11.70;99.90;;;;;;5066247;28;20040;-66
2023/09/15 02:56:56;;;;;;;7.75;2.38;;;11.70;99.90;;;;;;5065188;28;20550;-66
2023/09/15 02:59:22;;;;;;;8.70;2.53;;;11.70;99.90;;;;;;5064615;28;20036;-66
2023/09/15 03:01:47;;;;;;;9.88;2.85;;;11.60;99.90;;;;;;5065308;28;20049;-71
2023/09/15 03:04:13;;;;;;;7.15;2.40;;;11.70;99.90;;;;;;5067239;28;20051;-71
2023/09/15 03:06:39;;;;;;;12.95;2.70;;;11.60;99.90;;;;;;5066051;28;20659;-70
2023/09/15 03:09:08;;;;;;;7.07;2.40;;;11.60;99.90;;;;;;5066514;28;20041;-70
2023/09/15 03:11:34;;;;;;;7.28;2.25;;;11.60;99.90;;;;;;5065307;28;20034;-70
2023/09/15 03:13:59;;;;;;;7.72;2.50;;;11.60;99.90;;;;;;5063947;28;20048;-70
2023/09/15 03:16:26;;;;;;;6.97;2.83;;;11.50;99.90;;;;;;5066969;28;20040;-70
2023/09/15 03:18:51;;;;;;;10.30;2.30;;;11.50;99.90;;;;;;5067137;28;20164;-70
2023/09/15 03:21:19;;;;;;;9.60;2.92;;;11.50;99.90;;;;;;5057244;28;20049;-71
2023/09/15 03:23:47;;;;;;;8.18;2.63;;;11.50;99.90;;;;;;5061095;28;20048;-70
2023/09/15 03:26:13;;;;;;;9.75;2.75;;;11.50;99.90;;;;;;5065169;28;20113;-70
2023/09/15 03:28:39;;;;;;;8.05;2.72;;;11.40;99.90;;;;;;5066112;28;20032;-70
2023/09/15 03:31:05;;;;;;;6.97;2.92;;;11.40;99.90;;;;;;5067040;28;20044;-71
2023/09/15 03:33:30;;;;;;;7.75;2.53;;;11.40;99.90;;;;;;5066141;28;20055;-71
2023/09/15 03:35:57;;;;;;;11.43;2.72;;;11.40;99.90;;;;;;5067855;28;20500;-70
2023/09/15 03:38:23;;;;;;;5.50;2.30;;;11.40;99.90;;;;;;5062943;28;20130;-71
2023/09/15 03:40:49;;;;;;;7.18;2.30;;;11.40;99.90;;;;;;5069701;28;20094;-71
2023/09/15 03:43:14;;;;;;;9.32;3.08;;;11.30;99.90;;;;;;5069383;28;20071;-70
2023/09/15 03:45:48;;;;;;;8.57;2.60;;;11.30;99.90;;;;;;5069854;28;20041;-70
2023/09/15 03:48:15;;;;;;;7.45;2.58;;;11.30;99.90;;;;;;5069791;28;20044;-70
2023/09/15 03:50:40;;;;;;;9.55;2.45;;;11.30;99.90;;;;;;5068975;28;20049;-70
2023/09/15 03:53:06;;;;;;;6.72;2.50;;;11.30;99.90;;;;;;5064895;28;20044;-71
2023/09/15 03:55:32;;;;;;;7.60;2.58;;;11.30;99.90;;;;;;5066950;28;20770;-70
2023/09/15 03:57:58;;;;;;;8.02;2.65;;;11.20;99.90;;;;;;5067818;28;20040;-70
2023/09/15 04:00:24;;;;;;;8.73;3.10;;;11.20;99.90;;;;;;5067717;28;20040;-71
2023/09/15 04:02:49;;;;;;;8.90;2.83;;;11.20;99.90;;;;;;5067753;28;20052;-71
2023/09/15 04:05:15;;;;;;;7.88;2.72;;;11.20;99.90;;;;;;5067955;28;20174;-71
2023/09/15 04:07:44;;;;;;;10.05;2.60;;;11.20;99.90;;;;;;5064456;28;20075;-71
2023/09/15 04:10:10;;;;;;;9.60;3.10;;;11.20;99.90;;;;;;5063812;28;20058;-71
2023/09/15 04:12:36;;;;;;;8.80;2.85;;;11.10;99.90;;;;;;5067911;28;20044;-71
2023/09/15 04:15:04;;;;;;;8.50;2.85;;;11.20;99.90;;;;;;5064426;28;20661;-70
2023/09/15 04:17:31;;;;;;;7.38;2.88;;;11.10;99.90;;;;;;5047075;28;20616;-70
2023/09/15 04:19:58;;;;;;;8.88;2.83;;;11.10;99.90;;;;;;5061117;28;20506;-70
2023/09/15 04:22:27;;;;;;;8.05;2.70;;;11.10;99.90;;;;;;5049608;28;20183;-70
2023/09/15 04:24:53;;;;;;;8.63;2.97;;;11.10;99.90;;;;;;5063639;28;20799;-71
2023/09/15 04:27:19;;;;;;;11.02;2.90;;;11.00;99.90;;;;;;5067037;28;20024;-71
2023/09/15 04:29:57;;;;;;;6.93;2.88;;;11.00;99.90;;;;;;5065426;28;20520;-70
2023/09/15 04:32:23;;;;;;;8.02;2.88;;;11.00;99.90;;;;;;5067006;28;20040;-71
2023/09/15 04:34:53;;;;;;;6.95;2.70;;;11.00;99.90;;;;;;5065351;28;20044;-70
2023/09/15 04:37:20;;;;;;;9.32;2.80;;;11.00;99.90;;;;;;5062907;28;20045;-70
2023/09/15 04:39:49;;;;;;;7.93;2.50;;;10.90;99.90;;;;;;5045500;28;20421;-70
2023/09/15 04:42:15;;;;;;;11.02;3.25;;;10.90;99.90;;;;;;5063783;28;20165;-71
2023/09/15 04:44:41;;;;;;;7.97;2.88;;;10.90;99.90;;;;;;5042839;28;20506;-70
2023/09/15 04:47:07;;;;;;;9.35;3.10;;;10.80;99.90;;;;;;5040618;28;20499;-70
2023/09/15 04:49:32;;;;;;;6.13;2.60;;;10.80;99.90;;;;;;5054003;28;20596;-71
2023/09/15 04:51:58;;;;;;;8.50;3.30;;;10.80;99.90;;;;;;5045452;28;20583;-71
2023/09/15 04:54:26;;;;;;;8.98;2.90;;;10.70;99.90;;;;;;5038191;28;20512;-71
2023/09/15 04:56:52;;;;;;;7.40;2.72;;;10.80;99.90;;;;;;5062226;28;20036;-71
2023/09/15 04:59:19;;;;;;;7.82;2.70;;;10.80;99.90;;;;;;5048801;28;20048;-70
2023/09/15 05:01:48;;;;;;;7.82;3.00;;;10.70;99.90;;;;;;5062169;28;20048;-71
2023/09/15 05:04:15;;;;;;;7.80;2.65;;;10.70;99.90;;;;;;5047182;28;20044;-70
2023/09/15 05:06:41;;;;;;;5.38;2.30;;;10.70;99.90;;;;;;5066305;28;20048;-70
2023/09/15 05:09:10;;;;;;;7.88;2.90;;;10.70;99.90;;;;;;5063175;28;20040;-70
2023/09/15 05:11:39;;;;;;;6.45;2.80;;;10.70;99.90;;;;;;5042880;28;20097;-65
2023/09/15 05:14:05;;;;;;;7.20;2.58;;;10.70;99.90;;;;;;5061479;28;20105;-65
2023/09/15 05:16:32;;;;;;;8.45;2.65;;;10.60;99.90;;;;;;5061618;28;20052;-65
2023/09/15 05:18:58;;;;;;;13.50;3.17;;;10.60;99.90;;;;;;5087349;28;20044;-65
2023/09/15 05:21:24;;;;;;;11.70;3.28;;;10.60;99.90;;;;;;5047333;28;20449;-65
2023/09/15 05:23:49;;;;;;;7.55;3.00;;;10.60;99.90;;;;;;5047839;28;20056;-65
2023/09/15 05:26:15;;;;;;;12.85;3.33;;;10.60;99.90;;;;;;5064559;28;20520;-66
2023/09/15 05:28:41;;;;;;;7.32;3.25;;;10.60;99.90;;;;;;5064618;28;20187;-66
2023/09/15 05:31:07;;;;;;;10.30;3.75;;;10.60;99.90;;;;;;5067001;28;20143;-66
2023/09/15 05:33:33;;;;;;;9.68;2.97;;;10.50;99.90;;;;;;5049551;28;20044;-66
2023/09/15 05:35:59;;;;;;;7.18;2.60;;;10.60;99.90;;;;;;5066256;28;20537;-66
2023/09/15 05:38:26;;;;;;;8.05;3.05;;;10.60;99.90;;;;;;5049490;28;20040;-66
2023/09/15 05:40:52;;;;;;;8.60;2.88;;;10.60;99.90;;;;;;5064678;28;20520;-67
2023/09/15 05:43:19;;;;;;;7.15;2.83;;;10.50;99.90;;;;;;5044975;28;20778;-66
2023/09/15 05:45:45;;;;;;;8.00;2.95;;;10.50;99.90;;;;;;5081967;28;20049;-65
2023/09/15 05:48:16;;;;;;;11.98;3.55;;;10.60;99.90;;;;;;5063033;28;20050;-64
2023/09/15 05:50:41;;;;;;;7.25;3.20;;;10.60;99.90;;;;;;5048126;28;20061;-65
2023/09/15 05:53:07;;;;;;;6.25;2.80;;;10.60;99.90;;;;;;5086090;28;20056;-65
2023/09/15 05:55:33;;;;;;;10.57;3.00;;;10.60;99.90;;;;;;5043663;28;20083;-65
2023/09/15 05:57:59;;;;;;;8.57;2.85;;;10.60;99.90;;;;;;5045879;28;20489;-65
2023/09/15 06:00:25;;;;;;;9.60;3.97;;;10.60;99.90;;;;;;5042357;28;20063;-65
2023/09/15 06:02:51;;;;;;;9.40;3.33;;;10.80;99.90;;;;;;5060130;28;20101;-65
2023/09/15 06:05:19;;;;;;;6.05;2.83;;;11.00;99.90;;;;;;5043600;28;20048;-65
2023/09/15 06:07:49;;;;;;;9.93;3.60;;;11.20;99.90;;;;;;5048420;28;20049;-65
2023/09/15 06:10:15;;;;;;;10.20;2.88;;;11.30;99.90;;;;;;5094996;28;20040;-65
2023/09/15 06:12:40;;;;;;;8.80;3.00;;;11.40;99.90;;;;;;5040320;28;20055;-65
2023/09/15 06:15:07;;;;;;;7.28;2.80;;;11.40;99.90;;;;;;5055588;28;20092;-65
2023/09/15 06:17:34;;;;;;;7.72;2.90;;;11.40;99.90;;;;;;5035074;28;20052;-66
2023/09/15 06:20:00;;;;;;;6.60;2.88;;;11.30;99.90;;;;;;5048871;28;20087;-65
2023/09/15 06:22:26;;;;;;;10.93;3.40;;;11.30;99.90;;;;;;5039238;28;20045;-65
2023/09/15 06:24:52;;;;;;;7.95;3.30;;;11.30;99.90;;;;;;5044413;28;20055;-65
2023/09/15 06:27:18;;;;;;;7.68;3.20;;;11.30;99.90;;;;;;5058398;28;20041;-66
2023/09/15 06:29:44;;;;;;;8.30;3.20;;;11.30;99.90;;;;;;5036871;28;20041;-65
2023/09/15 06:32:10;;;;;;;7.28;3.70;;;11.20;99.90;;;;;;5047322;28;20505;-65
2023/09/15 06:34:35;;;;;;;10.65;3.70;;;11.30;99.90;;;;;;5041753;28;20032;-66
2023/09/15 06:37:01;;;;;;;7.22;3.55;;;11.20;99.90;;;;;;5042891;28;20062;-66
2023/09/15 06:39:28;;;;;;;10.80;3.55;;;11.30;99.90;;;;;;5048140;28;20056;-66
2023/09/15 06:41:54;;;;;;;9.05;3.20;;;11.30;99.90;;;;;;5058144;28;20048;-66
2023/09/15 06:44:20;;;;;;;8.63;3.33;;;11.30;99.90;;;;;;5053541;28;20048;-66
2023/09/15 06:46:46;;;;;;;7.60;3.10;;;11.30;99.90;;;;;;5054327;28;20389;-66
2023/09/15 06:49:13;;;;;;;10.10;3.45;;;11.30;99.90;;;;;;5053606;28;20055;-66
2023/09/15 06:51:38;;;;;;;10.85;3.70;;;11.30;99.90;;;;;;5057457;28;20052;-66
2023/09/15 06:54:04;;;;;;;8.43;3.75;;;11.40;99.90;;;;;;5047603;28;20056;-66
2023/09/15 06:56:30;;;;;;;6.68;3.58;;;11.40;99.90;;;;;;5056977;28;20569;-67
2023/09/15 06:58:56;;;;;;;11.00;3.58;;;11.50;99.90;;;;;;5063897;28;20040;-66
2023/09/15 07:01:21;;;;;;;11.25;3.90;;;11.60;99.90;;;;;;5058495;28;20147;-66
2023/09/15 07:03:47;;;;;;;7.75;3.20;;;11.70;99.90;;;;;;5053853;28;20524;-66
2023/09/15 07:06:13;;;;;;;9.40;3.85;;;11.80;99.90;;;;;;5039366;28;20049;-66
2023/09/15 07:08:40;;;;;;;9.93;3.88;;;11.90;99.90;;;;;;5049456;28;20579;-66
2023/09/15 07:11:06;;;;;;;9.60;3.90;;;12.00;99.90;;;;;;5051302;28;20594;-66
2023/09/15 07:13:31;;;;;;;9.38;3.65;;;12.10;99.90;;;;;;5048041;28;20044;-70
2023/09/15 07:15:57;;;;;;;10.85;3.53;;;12.20;99.90;;;;;;5056842;28;20604;-70
2023/09/15 07:18:23;;;;;;;13.85;3.92;;;12.40;99.90;;;;;;5035656;28;20052;-71
2023/09/15 07:20:49;;;;;;;14.68;3.88;;;12.60;99.90;;;;;;5066873;28;20033;-71
2023/09/15 07:23:15;;;;;;;12.10;3.72;;;12.70;99.90;;;;;;5036504;28;20059;-66
2023/09/15 07:25:47;;;;;;;8.80;3.60;;;12.90;99.90;;;;;;5062762;28;20044;-65
2023/09/15 07:28:13;;;;;;;9.98;3.05;;;13.00;99.90;;;;;;5061622;28;20090;-65
2023/09/15 07:30:39;;;;;;;7.93;3.22;;;13.30;99.90;;;;;;5056412;28;20081;-66
2023/09/15 07:33:05;;;;;;;11.20;3.47;;;13.40;99.90;;;;;;5054031;28;20805;-66
2023/09/15 07:35:30;;;;;;;9.68;3.00;;;13.60;99.90;;;;;;5032390;28;20052;-65
2023/09/15 07:37:56;;;;;;;8.70;2.78;;;13.70;99.90;;;;;;5058375;28;20052;-65
2023/09/15 07:40:22;;;;;;;8.23;2.85;;;13.90;99.90;;;;;;5060726;28;20040;-66
2023/09/15 07:42:48;;;;;;;7.45;3.20;;;14.00;99.90;;;;;;5046585;28;20492;-65
2023/09/15 07:45:15;;;;;;;8.27;2.83;;;14.20;99.90;;;;;;5064741;28;20056;-65
2023/09/15 07:47:40;;;;;;;8.50;2.90;;;14.30;99.90;;;;;;5045487;28;20049;-66
2023/09/15 07:50:06;;;;;;;13.65;3.05;;;14.50;99.90;;;;;;5083997;28;20040;-65
2023/09/15 07:52:33;;;;;;;7.32;2.70;;;14.60;99.90;;;;;;5054862;28;20052;-66
2023/09/15 07:54:59;;;;;;;11.27;3.35;;;14.80;99.90;;;;;;5084065;28;20044;-67
2023/09/15 07:57:25;;;;;;;7.55;3.10;;;14.90;99.90;;;;;;5057695;28;20413;-71
2023/09/15 07:59:51;;;;;;;10.02;3.45;;;15.00;99.90;;;;;;5057265;28;20520;-71
2023/09/15 08:02:16;;;;;;;9.57;2.70;;;15.10;99.90;;;;;;5078104;28;20060;-72
2023/09/15 08:04:43;;;;;;;7.30;2.72;;;15.10;99.90;;;;;;5047793;28;20041;-72
2023/09/15 08:07:09;;;;;;;7.13;2.90;;;15.20;99.90;;;;;;5045804;28;20436;-71
2023/09/15 08:09:35;;;;;;;11.73;2.63;;;15.40;99.90;;;;;;5052813;28;20159;-71
2023/09/15 08:12:00;;;;;;;7.03;2.50;;;15.40;99.90;;;;;;5054816;28;20048;-72
2023/09/15 08:14:26;;;;;;;8.73;2.80;;;15.60;99.90;;;;;;5058397;28;20061;-72
2023/09/15 08:16:52;;;;;;;7.68;2.20;;;15.70;99.90;;;;;;5035718;28;20076;-71
2023/09/15 08:19:20;;;;;;;8.10;2.63;;;15.80;99.90;;;;;;5036243;28;20136;-72
2023/09/15 08:21:47;;;;;;;5.88;2.30;;;15.90;99.90;;;;;;5036507;28;20036;-72
2023/09/15 08:24:13;;;;;;;7.95;2.50;;;16.00;99.90;;;;;;5039399;28;20048;-72
2023/09/15 08:26:38;;;;;;;8.55;2.78;;;16.10;99.90;;;;;;5054456;28;20388;-71
2023/09/15 08:29:05;;;;;;;9.13;2.60;;;16.20;99.90;;;;;;5075286;28;20044;-73
2023/09/15 08:31:31;;;;;;;8.27;2.90;;;16.30;99.90;;;;;;5043917;28;20040;-71
2023/09/15 08:33:57;;;;;;;7.53;2.28;;;16.40;99.90;;;;;;5059598;28;20056;-72
2023/09/15 08:36:25;;;;;;;7.55;2.28;;;16.50;99.90;;;;;;5026721;28;20064;-71
2023/09/15 08:38:52;;;;;;;6.65;2.90;;;16.60;99.90;;;;;;5035996;28;20044;-73
2023/09/15 08:41:34;;;;;;;10.25;3.00;;;16.70;99.90;;;;;;5062568;28;20139;-73
2023/09/15 08:44:01;;;;;;;9.80;2.40;;;16.70;99.90;;;;;;5077025;28;20056;-72
2023/09/15 08:46:30;;;;;;;8.15;2.55;;;16.90;99.90;;;;;;5035904;28;20041;-73
2023/09/15 08:48:58;;;;;;;9.38;2.70;;;16.90;99.90;;;;;;5045770;28;20049;-73
2023/09/15 08:51:25;;;;;;;8.45;2.25;;;17.00;99.90;;;;;;5044479;28;20059;-73
2023/09/15 08:53:52;;;;;;;11.57;3.03;;;17.00;99.90;;;;;;5043334;28;20134;-73
2023/09/15 08:56:18;;;;;;;8.15;2.53;;;17.10;99.90;;;;;;5050815;28;20128;-73
2023/09/15 08:58:45;;;;;;;7.68;2.63;;;17.10;99.90;;;;;;5049937;28;20037;-73
2023/09/15 09:01:14;;;;;;;11.13;3.00;;;17.20;99.90;;;;;;5047682;28;20397;-73
2023/09/15 09:03:40;;;;;;;8.27;2.58;;;17.30;99.90;;;;;;5034258;28;20094;-73
2023/09/15 09:06:14;;;;;;;8.00;2.60;;;17.40;99.90;;;;;;5044257;28;20045;-73
2023/09/15 09:08:47;;;;;;;10.70;3.83;;;17.40;99.90;;;;;;5061391;28;20505;-73
2023/09/15 09:11:14;;;;;;;11.20;3.08;;;17.50;99.90;;;;;;5043757;28;20533;-68
2023/09/15 09:13:40;;;;;;;9.05;2.72;;;17.50;99.90;;;;;;5079086;28;20160;-68
2023/09/15 09:16:07;;;;;;;9.13;3.08;;;17.60;99.90;;;;;;5060886;28;20661;-68
2023/09/15 09:18:34;;;;;;;8.95;2.40;;;17.70;99.90;;;;;;5048153;28;20056;-68
2023/09/15 09:21:06;;;;;;;5.95;2.55;;;17.80;99.90;;;;;;5036740;28;20049;-68
2023/09/15 09:23:31;;;;;;;8.75;2.85;;;17.80;99.90;;;;;;5031411;28;21052;-68
2023/09/15 09:26:09;;;;;;;6.88;2.88;;;18.00;99.90;;;;;;5032068;28;20041;-69
2023/09/15 09:28:36;;;;;;;9.00;2.95;;;18.10;99.90;;;;;;5044067;28;20053;-67
2023/09/15 09:31:02;;;;;;;8.32;2.65;;;18.10;99.90;;;;;;5053962;28;20139;-66
2023/09/15 09:33:27;;;;;;;9.25;2.97;;;18.10;99.90;;;;;;5045422;28;20047;-66
2023/09/15 09:35:53;;;;;;;8.85;2.95;;;18.20;99.90;;;;;;5035453;28;20110;-67
2023/09/15 09:38:19;;;;;;;6.75;2.65;;;18.30;99.90;;;;;;5043847;28;20728;-67
2023/09/15 09:40:45;;;;;;;9.18;2.97;;;18.20;99.90;;;;;;5079047;28;20049;-67
2023/09/15 09:43:15;;;;;;;9.05;3.30;;;18.40;99.90;;;;;;5027688;28;20048;-67
2023/09/15 09:45:41;;;;;;;9.88;3.50;;;18.40;99.90;;;;;;5032088;28;20048;-66
2023/09/15 09:48:10;;;;;;;9.95;3.22;;;18.40;99.90;;;;;;5056966;28;20192;-66
2023/09/15 09:50:36;;;;;;;9.30;2.95;;;18.40;99.90;;;;;;5035307;28;20060;-67
2023/09/15 09:53:08;;;;;;;7.80;3.05;;;18.40;99.90;;;;;;5031741;28;20246;-67
2023/09/15 09:55:34;;;;;;;9.38;3.10;;;18.50;99.90;;;;;;5073499;28;22026;-67
2023/09/15 09:58:07;;;;;;;11.98;3.42;;;18.50;99.90;;;;;;5041314;28;20052;-67
2023/09/15 10:00:34;;;;;;;7.95;3.38;;;18.60;99.90;;;;;;5042986;28;20049;-66
2023/09/15 10:03:00;;;;;;;9.50;3.53;;;18.60;99.90;;;;;;5027450;28;20048;-66
2023/09/15 10:05:26;;;;;;;8.75;3.28;;;18.60;99.90;;;;;;5033379;28;20048;-66
2023/09/15 10:07:53;;;;;;;10.93;4.07;;;18.60;99.90;;;;;;5052721;28;20483;-66
2023/09/15 10:10:19;;;;;;;10.02;3.83;;;18.70;99.90;;;;;;5030600;28;20056;-66
2023/09/15 10:12:46;;;;;;;12.65;4.28;;;18.70;99.90;;;;;;5057455;28;20052;-72
2023/09/15 10:15:13;;;;;;;10.50;4.03;;;18.80;99.90;;;;;;5040975;28;20183;-71
2023/09/15 10:17:39;;;;;;;11.50;4.22;;;18.80;99.90;;;;;;5035391;28;20076;-66
2023/09/15 10:20:06;;;;;;;12.30;4.30;;;18.90;99.90;;;;;;5034049;28;20048;-67
2023/09/15 10:22:33;;;;;;;9.30;3.20;;;18.80;99.90;;;;;;5053225;28;20087;-67
2023/09/15 10:25:00;;;;;;;8.10;3.38;;;18.80;99.90;;;;;;5057181;28;20048;-67
2023/09/15 10:27:29;;;;;;;10.50;3.45;;;18.90;99.90;;;;;;5053567;28;20095;-67
2023/09/15 10:30:07;;;;;;;8.75;2.85;;;18.90;99.90;;;;;;5039431;28;20045;-67
2023/09/15 10:32:39;;;;;;;9.60;2.95;;;18.90;99.90;;;;;;5030576;28;20056;-67
2023/09/15 10:35:07;;;;;;;9.88;3.28;;;19.00;99.90;;;;;;5051092;28;20055;-67
2023/09/15 10:37:36;;;;;;;9.02;2.75;;;19.00;99.90;;;;;;5063980;28;20102;-67
2023/09/15 10:40:02;;;;;;;7.32;2.83;;;19.10;99.90;;;;;;5054365;28;20070;-71
2023/09/15 10:42:28;;;;;;;10.40;2.75;;;19.10;99.90;;;;;;5055409;28;20482;-72
2023/09/15 10:44:54;;;;;;;9.52;3.10;;;19.10;99.90;;;;;;5051972;28;20119;-72
2023/09/15 10:47:21;;;;;;;11.23;3.08;;;19.10;99.90;;;;;;5046510;28;20056;-73
2023/09/15 10:49:54;;;;;;;10.68;2.67;;;19.20;99.90;;;;;;5047448;28;20060;-72
2023/09/15 10:52:33;;;;;;;11.50;2.83;;;19.20;99.90;;;;;;5042199;28;20084;-73
2023/09/15 10:55:00;;;;;;;6.85;2.60;;;19.20;99.90;;;;;;5023310;28;20049;-72
2023/09/15 10:57:26;;;;;;;7.38;2.75;;;19.30;99.90;;;;;;5037153;28;20136;-72
2023/09/15 10:59:54;;;;;;;8.35;3.30;;;19.30;99.90;;;;;;5051040;28;20055;-72
2023/09/15 11:02:21;;;;;;;10.05;3.20;;;19.30;99.90;;;;;;5052065;28;20052;-72
2023/09/15 11:04:47;;;;;;;10.77;3.22;;;19.30;99.90;;;;;;5076452;28;20049;-72
2023/09/15 11:07:14;;;;;;;8.70;2.78;;;19.30;99.90;;;;;;5051712;28;20065;-71
2023/09/15 11:09:43;;;;;;;7.03;2.70;;;19.30;99.90;;;;;;5054297;28;20060;-72
2023/09/15 11:12:14;;;;;;;6.53;2.53;;;19.40;99.90;;;;;;5038819;28;20127;-72
2023/09/15 11:14:40;;;;;;;;;;;19.40;99.90;;;;;;5053949;28;20059;-72
2023/09/15 11:17:07;;;;;;;10.45;3.03;;;19.40;99.90;;;;;;5044174;28;19921;-72
2023/09/15 11:19:36;;;;;;;9.77;2.50;;;19.40;99.90;;;;;;5057272;28;20214;-72
2023/09/15 11:22:05;;;;;;;8.88;2.70;;;19.50;99.90;;;;;;5043400;28;20497;-72
2023/09/15 11:24:34;;;;;;;10.40;3.58;;;19.50;99.90;;;;;;5057075;28;20052;-72
2023/09/15 11:27:00;;;;;;;9.48;2.63;;;19.50;99.90;;;;;;5036748;28;20032;-72
2023/09/15 11:29:30;;;;;;;9.95;2.90;;;19.50;99.90;;;;;;5041042;28;20513;-72
2023/09/15 11:31:58;;;;;;;8.02;2.30;;;19.50;99.90;;;;;;5054861;28;20086;-68
2023/09/15 11:34:24;;;;;;;6.82;2.67;;;19.50;99.90;;;;;;5050623;28;20429;-68
2023/09/15 11:36:51;;;;;;;9.82;2.78;;;19.50;99.90;;;;;;5048534;28;20073;-68
2023/09/15 11:39:17;;;;;;;6.57;2.50;;;19.50;99.90;;;;;;5037990;28;20056;-72
2023/09/15 11:41:55;;;;;;;10.25;2.42;;;19.50;99.90;;;;;;5032003;28;20045;-71
2023/09/15 11:44:31;;;;;;;9.90;3.08;;;19.50;99.90;;;;;;5030315;28;20044;-71
2023/09/15 11:47:01;;;;;;;6.75;2.88;;;19.50;99.90;;;;;;5040620;28;20044;-73
2023/09/15 11:49:29;;;;;;;6.55;2.47;;;19.50;99.90;;;;;;5041493;28;20064;-71
2023/09/15 11:51:56;;;;;;;8.48;2.88;;;19.60;99.90;;;;;;5036909;28;20045;-71
2023/09/15 11:54:22;;;;;;;8.38;2.28;;;19.60;99.90;;;;;;5044326;28;20052;-72
2023/09/15 11:56:48;;;;;;;8.85;3.08;;;19.70;99.90;;;;;;5038192;28;20056;-72
2023/09/15 11:59:17;;;;;;;8.25;2.78;;;19.70;99.90;;;;;;5045987;28;20185;-73
2023/09/15 12:01:45;;;;;;;8.85;3.15;;;19.70;99.90;;;;;;5046769;28;20049;-73
2023/09/15 12:04:11;;;;;;;8.73;2.33;;;19.70;99.90;;;;;;5032345;28;20569;-72
2023/09/15 12:06:41;;;;;;;9.48;2.80;;;19.80;99.90;;;;;;5062254;28;20139;-72
2023/09/15 12:09:11;;;;;;;6.65;2.45;;;19.80;99.90;;;;;;5061595;28;20617;-72
2023/09/15 12:11:46;;;;;;;7.88;2.67;;;19.80;99.90;;;;;;5084782;28;20408;-72
2023/09/15 12:14:13;;;;;;;8.20;2.78;;;19.90;99.90;;;;;;5094087;28;20465;-71
2023/09/15 12:16:42;;;;;;;5.82;2.22;;;19.90;99.90;;;;;;5063814;28;20135;-72
2023/09/15 12:19:10;;;;;;;7.07;2.55;;;20.00;99.90;;;;;;5054392;28;20131;-72
2023/09/15 12:21:36;;;;;;;6.40;2.15;;;20.10;99.90;;;;;;5037315;28;20036;-72
2023/09/15 12:24:11;;;;;;;5.90;2.33;;;20.10;99.90;;;;;;5038124;28;20727;-72
2023/09/15 12:26:39;;;;;;;9.02;2.55;;;20.20;99.90;;;;;;5048021;28;20139;-72
2023/09/15 12:29:05;;;;;;;11.02;2.05;;;20.20;99.90;;;;;;5043134;28;20132;-72
2023/09/15 12:31:45;;;;;;;5.75;2.20;;;20.20;99.90;;;;;;5047519;28;20053;-73
2023/09/15 12:34:19;;;;;;;7.57;2.20;;;20.30;99.90;;;;;;5059184;28;20454;-72
2023/09/15 12:36:52;;;;;;;8.20;2.17;;;20.40;99.90;;;;;;5058291;28;20497;-71
2023/09/15 12:39:18;;;;;;;6.47;2.30;;;20.40;99.90;;;;;;5037547;28;20056;-72
2023/09/15 12:41:44;;;;;;;12.40;2.70;;;20.50;99.90;;;;;;5037207;28;20048;-71
2023/09/15 12:44:11;;;;;;;11.25;2.40;;;20.50;99.90;;;;;;5054192;28;20175;-71
2023/09/15 12:46:37;;;;;;;10.32;2.38;;;20.60;99.90;;;;;;5077550;27;20056;-72